createdAt,value
2019-03-17T00:00:43.939Z,62.60
2019-03-17T00:03:12.634Z,61.70
2019-03-17T00:05:41.205Z,62.10
2019-03-17T00:08:09.809Z,61.80
2019-03-17T00:10:38.578Z,61.30
2019-03-17T00:13:07.260Z,61.00
2019-03-17T00:15:35.965Z,60.70
2019-03-17T00:18:04.850Z,60.70
2019-03-17T00:20:33.521Z,59.70
2019-03-17T00:23:02.127Z,59.70
2019-03-17T00:25:30.788Z,59.90
2019-03-17T00:27:59.589Z,59.30
2019-03-17T00:30:28.364Z,59.20
2019-03-17T00:32:56.941Z,59.50
2019-03-17T00:35:25.617Z,60.00
2019-03-17T00:37:54.213Z,59.90
2019-03-17T00:40:22.891Z,59.70
2019-03-17T00:42:51.580Z,60.20
2019-03-17T00:45:20.167Z,60.40
2019-03-17T00:47:48.747Z,60.80
2019-03-17T00:50:17.312Z,61.40
2019-03-17T00:52:45.910Z,60.80
2019-03-17T00:55:14.487Z,60.60
2019-03-17T00:57:43.182Z,60.70
2019-03-17T01:00:14.144Z,61.00
2019-03-17T01:02:42.797Z,60.90
2019-03-17T01:05:11.368Z,60.50
2019-03-17T01:07:40.071Z,61.00
2019-03-17T01:10:09.565Z,60.20
2019-03-17T01:12:38.213Z,60.40
2019-03-17T01:15:07.752Z,60.90
2019-03-17T01:17:36.438Z,61.10
2019-03-17T01:20:09.431Z,61.50
2019-03-17T01:22:38.109Z,61.40
2019-03-17T01:25:08.537Z,61.20
2019-03-17T01:27:37.223Z,61.30
2019-03-17T01:30:10.615Z,61.00
2019-03-17T01:32:39.302Z,60.80
2019-03-17T01:35:09.802Z,61.00
2019-03-17T01:37:38.825Z,61.30
2019-03-17T01:40:09.423Z,61.10
2019-03-17T01:42:38.010Z,61.70
2019-03-17T01:45:07.847Z,61.80
2019-03-17T01:47:36.522Z,61.70
2019-03-17T01:50:06.045Z,62.10
2019-03-17T01:52:34.621Z,61.80
2019-03-17T01:55:03.189Z,61.70
2019-03-17T01:57:31.773Z,61.60
2019-03-17T02:00:00.458Z,61.90
2019-03-17T02:02:29.040Z,61.70
2019-03-17T02:04:57.616Z,62.00
2019-03-17T02:07:26.205Z,62.10
2019-03-17T02:09:54.671Z,62.60
2019-03-17T02:12:23.371Z,63.60
2019-03-17T02:14:52.059Z,64.50
2019-03-17T02:17:20.637Z,65.20
2019-03-17T02:19:49.216Z,65.60
2019-03-17T02:22:17.798Z,66.00
2019-03-17T02:24:56.771Z,66.50
2019-03-17T02:27:16.544Z,66.90
2019-03-17T02:29:45.083Z,66.50
2019-03-17T02:32:13.681Z,66.70
2019-03-17T02:34:42.145Z,66.00
2019-03-17T02:37:10.728Z,65.70
2019-03-17T02:39:39.308Z,65.80
2019-03-17T02:42:07.995Z,65.50
2019-03-17T02:44:36.582Z,65.80
2019-03-17T02:47:05.056Z,65.30
2019-03-17T02:49:33.623Z,65.60
2019-03-17T02:52:02.220Z,66.00
2019-03-17T02:54:30.906Z,65.80
2019-03-17T02:56:59.593Z,65.60
2019-03-17T02:59:28.382Z,65.40
2019-03-17T03:01:56.915Z,65.80
2019-03-17T03:04:25.641Z,66.40
2019-03-17T03:06:54.228Z,67.40
2019-03-17T03:09:22.805Z,68.10
2019-03-17T03:11:51.492Z,68.80
2019-03-17T03:14:20.081Z,68.70
2019-03-17T03:16:48.654Z,69.30
2019-03-17T03:19:17.337Z,71.00
2019-03-17T03:21:45.924Z,71.20
2019-03-17T03:24:14.491Z,72.60
2019-03-17T03:26:43.084Z,72.80
2019-03-17T03:29:11.689Z,72.80
2019-03-17T03:31:40.251Z,73.30
2019-03-17T03:34:08.834Z,73.80
2019-03-17T03:36:37.312Z,73.80
2019-03-17T03:39:06.812Z,73.60
2019-03-17T03:41:35.911Z,73.20
2019-03-17T03:44:04.699Z,72.90
2019-03-17T03:46:33.384Z,73.20
2019-03-17T03:49:01.978Z,74.30
2019-03-17T03:51:30.688Z,75.10
2019-03-17T03:53:59.236Z,75.10
2019-03-17T03:56:27.821Z,75.10
2019-03-17T03:58:56.505Z,75.70
2019-03-17T04:01:25.180Z,75.80
2019-03-17T04:03:54.079Z,77.70
2019-03-17T04:06:26.972Z,78.10
2019-03-17T04:08:52.875Z,78.90
2019-03-17T04:11:21.483Z,78.30
2019-03-17T04:13:50.127Z,78.00
2019-03-17T04:16:18.823Z,78.70
2019-03-17T04:18:47.514Z,78.70
2019-03-17T04:21:16.192Z,79.30
2019-03-17T04:23:44.782Z,80.00
2019-03-17T04:26:13.567Z,81.30
2019-03-17T04:28:42.355Z,81.60
2019-03-17T04:31:14.311Z,82.50
2019-03-17T04:33:41.360Z,82.90
2019-03-17T04:36:10.149Z,83.30
2019-03-17T04:38:38.836Z,84.10
2019-03-17T04:41:07.408Z,85.10
2019-03-17T04:43:35.991Z,86.20
2019-03-17T04:46:04.518Z,87.10
2019-03-17T04:48:33.160Z,87.00
2019-03-17T04:51:01.841Z,87.20
2019-03-17T04:53:30.515Z,87.10
2019-03-17T04:55:59.217Z,86.50
2019-03-17T04:58:27.896Z,86.50
2019-03-17T05:00:56.485Z,85.90
2019-03-17T05:03:25.057Z,86.10
2019-03-17T05:05:53.742Z,86.70
2019-03-17T05:08:22.312Z,86.20
2019-03-17T05:10:50.911Z,86.60
2019-03-17T05:13:19.488Z,86.00
2019-03-17T05:15:48.072Z,85.20
2019-03-17T05:18:16.652Z,84.70
2019-03-17T05:20:45.193Z,84.20
2019-03-17T05:23:13.807Z,84.10
2019-03-17T05:25:42.403Z,84.00
2019-03-17T05:28:13.440Z,83.40
2019-03-17T05:30:42.232Z,83.30
2019-03-17T05:33:10.807Z,83.60
2019-03-17T05:35:39.298Z,83.40
2019-03-17T05:38:07.872Z,82.40
2019-03-17T05:40:36.348Z,82.00
2019-03-17T05:43:04.831Z,82.90
2019-03-17T05:45:33.412Z,81.80
2019-03-17T05:48:01.992Z,81.70
2019-03-17T05:50:30.677Z,81.10
2019-03-17T05:52:59.260Z,81.70
2019-03-17T05:55:27.750Z,81.60
2019-03-17T05:57:56.423Z,81.50
2019-03-17T06:00:24.905Z,80.70
2019-03-17T06:02:53.485Z,80.90
2019-03-17T06:05:22.178Z,80.20
2019-03-17T06:07:50.752Z,80.30
2019-03-17T06:10:19.338Z,80.90
2019-03-17T06:12:48.022Z,80.00
2019-03-17T06:15:16.505Z,79.90
2019-03-17T06:17:45.189Z,80.10
2019-03-17T06:20:13.873Z,79.90
2019-03-17T06:22:42.458Z,79.20
2019-03-17T06:25:11.148Z,79.30
2019-03-17T06:27:39.717Z,80.60
2019-03-17T06:30:12.965Z,80.50
2019-03-17T06:32:41.589Z,80.30
2019-03-17T06:35:10.172Z,80.70
2019-03-17T06:37:38.739Z,80.20
2019-03-17T06:40:10.614Z,80.70
2019-03-17T06:42:39.304Z,79.70
2019-03-17T06:45:10.000Z,80.20
2019-03-17T06:47:38.718Z,80.00
2019-03-17T06:50:13.447Z,79.70
2019-03-17T06:52:42.126Z,79.70
2019-03-17T06:55:13.268Z,80.30
2019-03-17T06:57:41.748Z,80.40
2019-03-17T07:00:14.636Z,79.00
2019-03-17T07:02:43.235Z,79.60
2019-03-17T07:05:11.796Z,79.80
2019-03-17T07:07:44.361Z,79.20
2019-03-17T07:10:11.689Z,79.00
2019-03-17T07:12:40.376Z,80.20
2019-03-17T07:15:12.784Z,79.60
2019-03-17T07:17:41.466Z,78.60
2019-03-17T07:20:12.919Z,78.20
2019-03-17T07:22:41.608Z,79.40
2019-03-17T07:25:10.291Z,76.80
2019-03-17T07:27:38.897Z,78.00
2019-03-17T07:30:11.034Z,78.10
2019-03-17T07:32:39.719Z,76.70
2019-03-17T07:35:08.301Z,76.80
2019-03-17T07:37:36.982Z,76.30
2019-03-17T07:40:09.125Z,76.30
2019-03-17T07:42:37.634Z,76.00
2019-03-17T07:45:08.347Z,76.30
2019-03-17T07:47:36.952Z,76.50
2019-03-17T07:50:12.080Z,75.60
2019-03-17T07:52:40.773Z,76.20
2019-03-17T07:55:10.073Z,75.40
2019-03-17T07:57:38.772Z,75.10
2019-03-17T08:00:11.736Z,74.80
2019-03-17T08:02:40.625Z,74.10
2019-03-17T08:05:10.131Z,75.20
2019-03-17T08:07:38.823Z,73.40
2019-03-17T08:10:13.071Z,73.30
2019-03-17T08:12:41.809Z,72.60
2019-03-17T08:15:11.851Z,72.80
2019-03-17T08:17:40.613Z,72.30
2019-03-17T08:20:13.596Z,73.10
2019-03-17T08:22:42.286Z,72.50
2019-03-17T08:25:11.690Z,71.00
2019-03-17T08:27:40.369Z,71.00
2019-03-17T08:30:14.379Z,71.00
2019-03-17T08:32:43.076Z,71.20
2019-03-17T08:35:11.638Z,70.20
2019-03-17T08:37:40.541Z,69.60
2019-03-17T08:40:14.132Z,68.50
2019-03-17T08:42:42.849Z,67.80
2019-03-17T08:45:12.475Z,66.60
2019-03-17T08:47:41.211Z,66.40
2019-03-17T08:50:11.437Z,63.90
2019-03-17T08:52:40.225Z,63.90
2019-03-17T08:55:09.730Z,60.50
2019-03-17T08:57:38.511Z,60.50
2019-03-17T09:00:12.608Z,62.30
2019-03-17T09:02:41.309Z,63.10
2019-03-17T09:05:09.994Z,64.00
2019-03-17T09:07:38.678Z,66.50
2019-03-17T09:10:10.728Z,66.30
2019-03-17T09:12:39.526Z,63.10
2019-03-17T09:15:08.831Z,58.20
2019-03-17T09:17:37.414Z,58.90
2019-03-17T09:20:09.480Z,57.60
2019-03-17T09:22:38.152Z,58.20
2019-03-17T09:25:09.215Z,58.00
2019-03-17T09:27:37.884Z,58.90
2019-03-17T09:30:17.625Z,59.80
2019-03-17T09:32:46.418Z,59.10
2019-03-17T09:35:15.306Z,60.40
2019-03-17T09:37:43.991Z,60.70
2019-03-17T09:40:16.771Z,60.70
2019-03-17T09:42:45.353Z,61.20
2019-03-17T09:45:14.754Z,60.70
2019-03-17T09:47:43.653Z,60.00
2019-03-17T09:50:16.728Z,60.40
2019-03-17T09:52:45.422Z,60.20
2019-03-17T09:55:14.206Z,60.20
2019-03-17T09:57:42.870Z,59.60
2019-03-17T10:00:19.539Z,59.20
2019-03-17T10:02:48.446Z,58.60
2019-03-17T10:05:17.130Z,58.90
2019-03-17T10:07:45.817Z,59.20
2019-03-17T10:10:22.402Z,58.00
2019-03-17T10:12:51.190Z,59.20
2019-03-17T10:15:20.424Z,58.00
2019-03-17T10:17:49.264Z,58.00
2019-03-17T10:20:21.025Z,58.60
2019-03-17T10:22:49.806Z,59.00
2019-03-17T10:25:18.494Z,58.90
2019-03-17T10:27:47.285Z,58.80
2019-03-17T10:30:18.115Z,57.80
2019-03-17T10:32:46.792Z,57.50
2019-03-17T10:35:15.375Z,57.20
2019-03-17T10:37:44.468Z,57.10
2019-03-17T10:40:18.687Z,57.20
2019-03-17T10:42:47.374Z,57.20
2019-03-17T10:45:16.102Z,57.00
2019-03-17T10:47:44.941Z,56.00
2019-03-17T10:50:19.823Z,56.80
2019-03-17T10:52:48.562Z,55.90
2019-03-17T10:55:17.342Z,55.70
2019-03-17T10:57:46.036Z,54.50
2019-03-17T11:00:16.437Z,53.90
2019-03-17T11:02:45.052Z,53.10
2019-03-17T11:05:13.929Z,53.80
2019-03-17T11:07:42.796Z,54.60
2019-03-17T11:10:12.470Z,53.80
2019-03-17T11:12:41.218Z,53.70
2019-03-17T11:15:14.585Z,53.60
2019-03-17T11:17:43.414Z,52.80
2019-03-17T11:20:12.777Z,53.40
2019-03-17T11:22:41.281Z,54.00
2019-03-17T11:25:13.833Z,53.40
2019-03-17T11:27:42.383Z,53.50
2019-03-17T11:30:15.055Z,52.90
2019-03-17T11:32:43.901Z,52.10
2019-03-17T11:35:12.797Z,53.70
2019-03-17T11:37:41.574Z,52.80
2019-03-17T11:40:18.141Z,53.10
2019-03-17T11:42:49.438Z,53.50
2019-03-17T11:45:17.590Z,52.30
2019-03-17T11:47:46.241Z,52.40
2019-03-17T11:50:20.969Z,53.00
2019-03-17T11:52:49.856Z,51.30
2019-03-17T11:55:18.541Z,51.60
2019-03-17T11:57:47.042Z,50.80
2019-03-17T12:00:19.596Z,49.70
2019-03-17T12:02:48.285Z,49.60
2019-03-17T12:05:17.066Z,49.20
2019-03-17T12:07:45.723Z,49.00
2019-03-17T12:10:24.359Z,49.00
2019-03-17T12:12:53.069Z,49.90
2019-03-17T12:15:27.054Z,48.50
2019-03-17T12:17:55.765Z,47.60
2019-03-17T12:20:24.436Z,47.50
2019-03-17T12:22:53.139Z,46.90
2019-03-17T12:25:21.703Z,47.30
2019-03-17T12:27:50.490Z,48.30
2019-03-17T12:30:23.666Z,49.00
2019-03-17T12:32:52.773Z,50.20
2019-03-17T12:35:21.441Z,48.70
2019-03-17T12:37:50.106Z,48.10
2019-03-17T12:40:18.709Z,47.70
2019-03-17T12:42:47.408Z,47.70
2019-03-17T12:45:15.987Z,47.40
2019-03-17T12:47:44.529Z,47.70
2019-03-17T12:50:15.294Z,48.10
2019-03-17T12:52:44.192Z,48.60
2019-03-17T12:55:12.983Z,49.40
2019-03-17T12:57:41.669Z,49.20
2019-03-17T13:00:18.281Z,49.40
2019-03-17T13:02:47.021Z,49.30
2019-03-17T13:05:15.739Z,49.60
2019-03-17T13:07:44.494Z,50.00
2019-03-17T13:10:18.719Z,50.30
2019-03-17T13:12:47.601Z,50.30
2019-03-17T13:15:16.223Z,50.70
2019-03-17T13:17:44.893Z,51.20
2019-03-17T13:20:17.659Z,51.40
2019-03-17T13:22:49.879Z,50.80
2019-03-17T13:25:19.320Z,50.70
2019-03-17T13:27:48.105Z,51.10
2019-03-17T13:30:17.419Z,51.50
2019-03-17T13:32:45.992Z,50.80
2019-03-17T13:35:14.768Z,51.00
2019-03-17T13:37:43.657Z,50.20
2019-03-17T13:40:28.110Z,49.90
2019-03-17T13:42:48.198Z,49.60
2019-03-17T13:45:16.778Z,48.10
2019-03-17T13:47:45.364Z,48.20
2019-03-17T13:50:21.693Z,49.00
2019-03-17T13:52:50.515Z,49.30
2019-03-17T13:55:19.415Z,50.30
2019-03-17T13:57:59.649Z,50.90
2019-03-17T14:00:28.548Z,51.40
2019-03-17T14:02:57.130Z,51.90
2019-03-17T14:05:25.817Z,52.90
2019-03-17T14:07:54.395Z,53.60
2019-03-17T14:10:23.103Z,53.30
2019-03-17T14:12:51.973Z,53.80
2019-03-17T14:15:20.653Z,54.70
2019-03-17T14:17:49.233Z,53.70
2019-03-17T14:20:20.531Z,53.40
2019-03-17T14:22:49.889Z,54.10
2019-03-17T14:25:35.668Z,53.90
2019-03-17T14:28:04.458Z,52.80
2019-03-17T14:30:33.760Z,53.60
2019-03-17T14:33:02.627Z,53.60
2019-03-17T14:35:31.327Z,52.90
2019-03-17T14:37:59.911Z,53.40
2019-03-17T14:40:28.716Z,53.20
2019-03-17T14:42:57.267Z,52.90
2019-03-17T14:45:26.170Z,52.30
2019-03-17T14:47:54.855Z,53.10
2019-03-17T14:50:24.317Z,52.90
2019-03-17T14:52:52.838Z,53.00
2019-03-17T14:55:21.422Z,52.70
2019-03-17T14:57:49.990Z,52.80
2019-03-17T15:00:22.173Z,52.30
2019-03-17T15:02:50.758Z,51.60
2019-03-17T15:05:19.330Z,50.90
2019-03-17T15:07:48.934Z,51.40
2019-03-17T15:10:23.052Z,51.00
2019-03-17T15:12:53.893Z,50.60
2019-03-17T15:15:25.960Z,50.70
2019-03-17T15:17:54.472Z,50.80
2019-03-17T15:20:27.820Z,51.30
2019-03-17T15:22:56.328Z,50.90
2019-03-17T15:25:25.105Z,51.20
2019-03-17T15:27:53.777Z,51.10
2019-03-17T15:30:36.103Z,50.70
2019-03-17T15:33:04.964Z,51.00
2019-03-17T15:35:33.544Z,50.70
2019-03-17T15:38:02.135Z,51.50
2019-03-17T15:40:31.128Z,51.20
2019-03-17T15:42:59.704Z,52.10
2019-03-17T15:45:28.505Z,53.50
2019-03-17T15:47:57.290Z,54.50
2019-03-17T15:50:29.757Z,55.40
2019-03-17T15:52:58.439Z,55.90
2019-03-17T15:55:27.331Z,56.40
2019-03-17T15:57:56.014Z,57.00
2019-03-17T16:00:26.841Z,57.80
2019-03-17T16:02:55.940Z,57.60
2019-03-17T16:05:24.521Z,57.60
2019-03-17T16:07:53.241Z,57.70
2019-03-17T16:10:26.809Z,57.40
2019-03-17T16:12:55.388Z,57.20
2019-03-17T16:15:25.720Z,56.60
2019-03-17T16:17:54.432Z,56.90
2019-03-17T16:20:23.906Z,57.30
2019-03-17T16:22:54.268Z,58.40
2019-03-17T16:25:24.987Z,59.10
2019-03-17T16:27:53.854Z,59.50
2019-03-17T16:30:27.119Z,61.20
2019-03-17T16:33:00.348Z,62.90
2019-03-17T16:35:29.443Z,62.40
2019-03-17T16:37:58.625Z,63.80
2019-03-17T16:40:31.010Z,63.10
2019-03-17T16:42:59.779Z,63.00
2019-03-17T16:45:28.460Z,62.90
2019-03-17T16:47:57.270Z,62.60
2019-03-17T16:50:27.275Z,62.00
2019-03-17T16:52:57.595Z,61.70
2019-03-17T16:55:26.374Z,62.20
2019-03-17T16:57:54.957Z,62.70
2019-03-17T17:00:24.668Z,62.00
2019-03-17T17:02:53.350Z,62.90
2019-03-17T17:05:23.160Z,61.80
2019-03-17T17:07:51.747Z,61.10
2019-03-17T17:10:28.273Z,60.90
2019-03-17T17:12:58.433Z,61.10
2019-03-17T17:15:28.061Z,61.10
2019-03-17T17:17:56.840Z,61.00
2019-03-17T17:20:28.171Z,60.30
2019-03-17T17:22:56.863Z,59.80
2019-03-17T17:25:25.651Z,60.10
2019-03-17T17:27:54.335Z,60.20
2019-03-17T17:30:23.025Z,60.70
2019-03-17T17:32:51.703Z,60.50
2019-03-17T17:35:20.490Z,60.00
2019-03-17T17:37:49.290Z,60.10
2019-03-17T17:40:26.124Z,60.60
2019-03-17T17:42:55.064Z,60.90
2019-03-17T17:45:25.784Z,60.20
2019-03-17T17:47:57.544Z,61.20
2019-03-17T17:50:33.433Z,60.80
2019-03-17T17:53:01.955Z,61.00
2019-03-17T17:55:30.545Z,60.90
2019-03-17T17:57:59.198Z,60.00
2019-03-17T18:00:32.315Z,61.00
2019-03-17T18:03:01.046Z,59.70
2019-03-17T18:05:29.684Z,59.20
2019-03-17T18:08:04.514Z,58.70
2019-03-17T18:10:33.202Z,57.80
2019-03-17T18:13:02.090Z,58.20
2019-03-17T18:15:32.314Z,57.30
2019-03-17T18:18:01.197Z,57.10
2019-03-17T18:20:29.886Z,56.50
2019-03-17T18:22:58.572Z,56.60
2019-03-17T18:25:27.252Z,56.50
2019-03-17T18:27:55.731Z,56.50
2019-03-17T18:30:25.238Z,56.40
2019-03-17T18:32:54.030Z,56.80
2019-03-17T18:35:22.742Z,57.00
2019-03-17T18:37:51.585Z,56.80
2019-03-17T18:40:21.311Z,56.30
2019-03-17T18:42:49.994Z,56.30
2019-03-17T18:45:20.730Z,56.60
2019-03-17T18:47:49.221Z,56.70
2019-03-17T18:50:20.798Z,56.90
2019-03-17T18:52:48.319Z,56.50
2019-03-17T18:55:16.778Z,56.80
2019-03-17T18:57:45.543Z,56.40
2019-03-17T19:00:15.954Z,56.90
2019-03-17T19:02:44.484Z,56.80
2019-03-17T19:05:14.352Z,56.80
2019-03-17T19:07:42.978Z,57.60
2019-03-17T19:10:19.565Z,57.40
2019-03-17T19:12:48.337Z,57.70
2019-03-17T19:15:22.139Z,59.10
2019-03-17T19:17:50.611Z,58.70
2019-03-17T19:20:20.195Z,58.30
2019-03-17T19:22:48.799Z,57.80
2019-03-17T19:25:18.615Z,57.80
2019-03-17T19:27:47.145Z,57.20
2019-03-17T19:30:17.856Z,57.60
2019-03-17T19:32:46.828Z,59.00
2019-03-17T19:35:15.512Z,59.00
2019-03-17T19:37:44.199Z,60.00
2019-03-17T19:40:18.097Z,61.20
2019-03-17T19:42:58.212Z,62.70
2019-03-17T19:45:16.890Z,63.50
2019-03-17T19:47:45.690Z,63.60
2019-03-17T19:50:15.634Z,63.90
2019-03-17T19:52:44.494Z,64.10
2019-03-17T19:55:13.534Z,64.80
2019-03-17T19:57:44.764Z,64.20
2019-03-17T20:00:15.347Z,64.80
2019-03-17T20:02:46.983Z,64.80
2019-03-17T20:05:14.786Z,64.90
2019-03-17T20:07:43.363Z,65.60
2019-03-17T20:10:23.804Z,65.40
2019-03-17T20:12:52.403Z,66.30
2019-03-17T20:15:21.101Z,66.70
2019-03-17T20:17:49.774Z,67.30
2019-03-17T20:20:18.353Z,67.00
2019-03-17T20:22:47.357Z,67.80
2019-03-17T20:25:16.352Z,67.60
2019-03-17T20:27:45.154Z,67.70
2019-03-17T20:30:15.809Z,67.50
2019-03-17T20:32:44.747Z,67.60
2019-03-17T20:35:14.089Z,67.50
2019-03-17T20:37:42.847Z,67.30
2019-03-17T20:40:19.488Z,67.30
2019-03-17T20:42:48.172Z,68.10
2019-03-17T20:45:19.972Z,68.00
2019-03-17T20:47:47.515Z,67.80
2019-03-17T20:50:18.169Z,67.80
2019-03-17T20:52:46.668Z,68.50
2019-03-17T20:55:15.405Z,68.50
2019-03-17T20:57:44.475Z,68.60
2019-03-17T21:00:20.005Z,68.60
2019-03-17T21:02:48.639Z,68.90
2019-03-17T21:05:17.384Z,68.70
2019-03-17T21:07:46.047Z,68.60
2019-03-17T21:10:16.631Z,68.70
2019-03-17T21:12:45.103Z,68.70
2019-03-17T21:15:19.112Z,68.00
2019-03-17T21:17:47.796Z,68.30
2019-03-17T21:20:18.586Z,68.00
2019-03-17T21:22:47.109Z,68.10
2019-03-17T21:25:15.613Z,68.70
2019-03-17T21:27:44.178Z,69.00
2019-03-17T21:30:30.681Z,69.70
2019-03-17T21:32:59.131Z,69.30
2019-03-17T21:35:27.660Z,69.60
2019-03-17T21:37:56.220Z,69.80
2019-03-17T21:40:24.700Z,70.10
2019-03-17T21:42:53.272Z,69.80
2019-03-17T21:45:21.987Z,69.90
2019-03-17T21:47:50.456Z,70.10
2019-03-17T21:50:20.074Z,70.50
2019-03-17T21:52:48.705Z,70.40
2019-03-17T21:55:17.172Z,70.30
2019-03-17T21:57:45.974Z,70.30
2019-03-17T22:00:16.153Z,70.30
2019-03-17T22:02:44.794Z,69.80
2019-03-17T22:05:13.899Z,69.70
2019-03-17T22:07:49.710Z,69.90
2019-03-17T22:10:15.220Z,70.00
2019-03-17T22:12:43.753Z,69.70
2019-03-17T22:15:13.600Z,69.40
2019-03-17T22:17:42.230Z,69.60
2019-03-17T22:20:15.423Z,69.80
2019-03-17T22:22:43.960Z,69.80
2019-03-17T22:25:14.533Z,70.00
2019-03-17T22:27:43.032Z,70.20
2019-03-17T22:30:21.431Z,70.00
2019-03-17T22:32:50.109Z,70.20
2019-03-17T22:35:18.695Z,70.00
2019-03-17T22:37:47.159Z,70.50
2019-03-17T22:40:16.543Z,70.40
2019-03-17T22:42:44.999Z,70.10
2019-03-17T22:45:14.469Z,70.10
2019-03-17T22:47:43.022Z,70.10
2019-03-17T22:50:13.702Z,69.90
2019-03-17T22:52:42.244Z,70.00
2019-03-17T22:55:10.868Z,70.00
2019-03-17T22:57:39.682Z,70.10
2019-03-17T23:00:19.111Z,70.30
2019-03-17T23:02:47.702Z,70.40
2019-03-17T23:05:16.413Z,71.00
2019-03-17T23:07:44.918Z,71.30
2019-03-17T23:10:13.540Z,71.40
2019-03-17T23:12:42.338Z,71.20
2019-03-17T23:15:12.569Z,71.70
2019-03-17T23:17:41.187Z,71.60
2019-03-17T23:20:11.953Z,71.60
2019-03-17T23:22:40.501Z,71.40
2019-03-17T23:25:10.319Z,71.50
2019-03-17T23:27:38.796Z,71.70
2019-03-17T23:30:13.409Z,71.40
2019-03-17T23:32:41.971Z,71.30
2019-03-17T23:35:10.574Z,71.40
2019-03-17T23:37:39.059Z,71.50
2019-03-17T23:40:09.819Z,71.30
2019-03-17T23:42:38.413Z,71.60
2019-03-17T23:45:11.395Z,71.40
2019-03-17T23:47:39.904Z,71.40
2019-03-17T23:50:10.778Z,71.50
2019-03-17T23:52:39.351Z,71.60
2019-03-17T23:55:12.132Z,71.80
2019-03-17T23:57:40.739Z,72.10
